sensor_id;sensor_type;location;lat;lon;timestamp;P1;durP1;ratioP1;P2;durP2;ratioP2
69523;SDS011;56723;42.694;23.286;2022-10-31T00:01:22;6.07;;;2.58;;
69523;SDS011;56723;42.694;23.286;2022-10-31T00:03:52;4.43;;;1.85;;
69523;SDS011;56723;42.694;23.286;2022-10-31T00:06:20;5.20;;;2.78;;
69523;SDS011;56723;42.694;23.286;2022-10-31T00:08:51;4.53;;;2.67;;
69523;SDS011;56723;42.694;23.286;2022-10-31T00:11:20;4.60;;;3.08;;
69523;SDS011;56723;42.694;23.286;2022-10-31T00:13:47;4.28;;;2.22;;
69523;SDS011;56723;42.694;23.286;2022-10-31T00:16:18;4.05;;;2.28;;
69523;SDS011;56723;42.694;23.286;2022-10-31T00:18:53;4.35;;;2.53;;
69523;SDS011;56723;42.694;23.286;2022-10-31T00:21:22;4.60;;;2.63;;
69523;SDS011;56723;42.694;23.286;2022-10-31T00:23:50;5.28;;;2.83;;
69523;SDS011;56723;42.694;23.286;2022-10-31T00:26:17;3.90;;;2.25;;
69523;SDS011;56723;42.694;23.286;2022-10-31T00:28:44;5.15;;;3.40;;
69523;SDS011;56723;42.694;23.286;2022-10-31T00:31:11;4.38;;;2.45;;
69523;SDS011;56723;42.694;23.286;2022-10-31T00:33:40;4.40;;;2.42;;
69523;SDS011;56723;42.694;23.286;2022-10-31T00:36:07;5.05;;;3.10;;
69523;SDS011;56723;42.694;23.286;2022-10-31T00:38:39;6.07;;;2.85;;
69523;SDS011;56723;42.694;23.286;2022-10-31T00:41:07;6.57;;;3.08;;
69523;SDS011;56723;42.694;23.286;2022-10-31T00:43:34;5.78;;;2.92;;
69523;SDS011;56723;42.694;23.286;2022-10-31T00:46:01;6.40;;;3.10;;
69523;SDS011;56723;42.694;23.286;2022-10-31T00:48:41;7.45;;;4.03;;
69523;SDS011;56723;42.694;23.286;2022-10-31T00:51:08;8.15;;;2.92;;
69523;SDS011;56723;42.694;23.286;2022-10-31T00:53:36;5.55;;;2.92;;
69523;SDS011;56723;42.694;23.286;2022-10-31T00:56:03;4.82;;;2.47;;
69523;SDS011;56723;42.694;23.286;2022-10-31T00:58:30;6.57;;;2.80;;
69523;SDS011;56723;42.694;23.286;2022-10-31T01:00:57;6.30;;;2.38;;
69523;SDS011;56723;42.694;23.286;2022-10-31T01:03:25;6.35;;;2.53;;
69523;SDS011;56723;42.694;23.286;2022-10-31T01:06:06;6.10;;;1.95;;
69523;SDS011;56723;42.694;23.286;2022-10-31T01:11:07;4.15;;;1.92;;
69523;SDS011;56723;42.694;23.286;2022-10-31T01:13:53;5.55;;;2.63;;
69523;SDS011;56723;42.694;23.286;2022-10-31T01:16:22;6.03;;;2.50;;
69523;SDS011;56723;42.694;23.286;2022-10-31T01:18:50;5.00;;;2.40;;
69523;SDS011;56723;42.694;23.286;2022-10-31T01:21:19;6.63;;;2.35;;
69523;SDS011;56723;42.694;23.286;2022-10-31T01:23:48;4.57;;;2.13;;
69523;SDS011;56723;42.694;23.286;2022-10-31T01:26:17;5.60;;;1.92;;
69523;SDS011;56723;42.694;23.286;2022-10-31T01:28:48;4.68;;;2.55;;
69523;SDS011;56723;42.694;23.286;2022-10-31T01:31:23;7.28;;;3.10;;
69523;SDS011;56723;42.694;23.286;2022-10-31T01:33:52;4.53;;;2.60;;
69523;SDS011;56723;42.694;23.286;2022-10-31T01:36:27;6.43;;;2.92;;
69523;SDS011;56723;42.694;23.286;2022-10-31T01:38:56;5.85;;;3.10;;
69523;SDS011;56723;42.694;23.286;2022-10-31T01:41:29;3.90;;;2.50;;
69523;SDS011;56723;42.694;23.286;2022-10-31T01:43:58;5.72;;;2.60;;
69523;SDS011;56723;42.694;23.286;2022-10-31T01:49:00;3.05;;;1.75;;
69523;SDS011;56723;42.694;23.286;2022-10-31T01:51:33;5.93;;;2.78;;
69523;SDS011;56723;42.694;23.286;2022-10-31T01:54:05;6.28;;;2.88;;
69523;SDS011;56723;42.694;23.286;2022-10-31T01:56:37;7.53;;;3.60;;
69523;SDS011;56723;42.694;23.286;2022-10-31T01:59:08;6.00;;;2.35;;
69523;SDS011;56723;42.694;23.286;2022-10-31T02:01:39;9.02;;;3.70;;
69523;SDS011;56723;42.694;23.286;2022-10-31T02:04:07;6.85;;;3.92;;
69523;SDS011;56723;42.694;23.286;2022-10-31T02:06:38;5.45;;;3.00;;
69523;SDS011;56723;42.694;23.286;2022-10-31T02:09:12;7.18;;;3.42;;
69523;SDS011;56723;42.694;23.286;2022-10-31T02:11:39;4.68;;;2.33;;
69523;SDS011;56723;42.694;23.286;2022-10-31T02:14:10;4.85;;;3.85;;
69523;SDS011;56723;42.694;23.286;2022-10-31T02:16:37;7.60;;;4.07;;
69523;SDS011;56723;42.694;23.286;2022-10-31T02:19:04;5.93;;;3.88;;
69523;SDS011;56723;42.694;23.286;2022-10-31T02:22:14;6.25;;;3.83;;
69523;SDS011;56723;42.694;23.286;2022-10-31T02:30:54;6.93;;;4.47;;
69523;SDS011;56723;42.694;23.286;2022-10-31T02:33:34;9.48;;;4.32;;
69523;SDS011;56723;42.694;23.286;2022-10-31T02:41:45;6.05;;;3.70;;
69523;SDS011;56723;42.694;23.286;2022-10-31T02:44:36;7.63;;;3.92;;
69523;SDS011;56723;42.694;23.286;2022-10-31T02:47:12;5.60;;;4.03;;
69523;SDS011;56723;42.694;23.286;2022-10-31T02:52:27;4.93;;;3.42;;
69523;SDS011;56723;42.694;23.286;2022-10-31T02:55:10;5.38;;;3.22;;
69523;SDS011;56723;42.694;23.286;2022-10-31T02:58:10;5.95;;;3.90;;
69523;SDS011;56723;42.694;23.286;2022-10-31T03:03:54;6.15;;;3.83;;
69523;SDS011;56723;42.694;23.286;2022-10-31T03:06:30;8.02;;;4.82;;
69523;SDS011;56723;42.694;23.286;2022-10-31T03:11:46;8.40;;;3.55;;
69523;SDS011;56723;42.694;23.286;2022-10-31T03:17:12;7.75;;;4.82;;
69523;SDS011;56723;42.694;23.286;2022-10-31T03:22:19;11.48;;;4.90;;
69523;SDS011;56723;42.694;23.286;2022-10-31T03:24:50;7.15;;;4.65;;
69523;SDS011;56723;42.694;23.286;2022-10-31T03:27:22;9.20;;;5.25;;
69523;SDS011;56723;42.694;23.286;2022-10-31T03:29:53;8.85;;;4.88;;
69523;SDS011;56723;42.694;23.286;2022-10-31T03:32:32;10.25;;;4.93;;
69523;SDS011;56723;42.694;23.286;2022-10-31T03:35:04;8.10;;;4.63;;
69523;SDS011;56723;42.694;23.286;2022-10-31T03:37:36;6.72;;;4.68;;
69523;SDS011;56723;42.694;23.286;2022-10-31T03:40:09;10.13;;;5.30;;
69523;SDS011;56723;42.694;23.286;2022-10-31T03:42:39;8.88;;;5.38;;
69523;SDS011;56723;42.694;23.286;2022-10-31T03:45:13;8.15;;;4.90;;
69523;SDS011;56723;42.694;23.286;2022-10-31T03:47:44;9.38;;;5.78;;
69523;SDS011;56723;42.694;23.286;2022-10-31T03:50:12;10.00;;;5.10;;
69523;SDS011;56723;42.694;23.286;2022-10-31T03:52:42;8.07;;;5.03;;
69523;SDS011;56723;42.694;23.286;2022-10-31T03:55:13;11.13;;;5.70;;
69523;SDS011;56723;42.694;23.286;2022-10-31T04:00:15;10.13;;;5.70;;
69523;SDS011;56723;42.694;23.286;2022-10-31T04:02:45;11.73;;;6.40;;
69523;SDS011;56723;42.694;23.286;2022-10-31T04:05:18;11.32;;;6.15;;
69523;SDS011;56723;42.694;23.286;2022-10-31T04:07:47;10.63;;;6.20;;
69523;SDS011;56723;42.694;23.286;2022-10-31T04:10:18;15.35;;;6.78;;
69523;SDS011;56723;42.694;23.286;2022-10-31T04:12:49;10.30;;;7.40;;
69523;SDS011;56723;42.694;23.286;2022-10-31T04:15:30;10.05;;;6.65;;
69523;SDS011;56723;42.694;23.286;2022-10-31T04:17:59;10.20;;;6.57;;
69523;SDS011;56723;42.694;23.286;2022-10-31T04:20:36;11.32;;;6.97;;
69523;SDS011;56723;42.694;23.286;2022-10-31T04:23:05;14.35;;;7.50;;
69523;SDS011;56723;42.694;23.286;2022-10-31T04:25:42;10.48;;;6.90;;
69523;SDS011;56723;42.694;23.286;2022-10-31T04:28:09;12.88;;;6.60;;
69523;SDS011;56723;42.694;23.286;2022-10-31T04:30:36;10.25;;;7.05;;
69523;SDS011;56723;42.694;23.286;2022-10-31T04:33:03;9.48;;;7.38;;
69523;SDS011;56723;42.694;23.286;2022-10-31T04:35:30;12.73;;;7.30;;
69523;SDS011;56723;42.694;23.286;2022-10-31T04:37:57;11.88;;;6.45;;
69523;SDS011;56723;42.694;23.286;2022-10-31T04:40:24;12.55;;;7.57;;
69523;SDS011;56723;42.694;23.286;2022-10-31T04:43:10;68.43;;;42.55;;
69523;SDS011;56723;42.694;23.286;2022-10-31T04:45:37;13.70;;;8.93;;
69523;SDS011;56723;42.694;23.286;2022-10-31T04:48:04;14.48;;;9.02;;
69523;SDS011;56723;42.694;23.286;2022-10-31T04:50:35;40.65;;;25.65;;
69523;SDS011;56723;42.694;23.286;2022-10-31T04:53:02;14.15;;;8.70;;
69523;SDS011;56723;42.694;23.286;2022-10-31T04:55:37;17.15;;;10.73;;
69523;SDS011;56723;42.694;23.286;2022-10-31T04:58:07;16.08;;;9.35;;
69523;SDS011;56723;42.694;23.286;2022-10-31T05:00:34;18.92;;;10.57;;
69523;SDS011;56723;42.694;23.286;2022-10-31T05:03:01;17.02;;;11.38;;
69523;SDS011;56723;42.694;23.286;2022-10-31T05:05:29;20.35;;;10.60;;
69523;SDS011;56723;42.694;23.286;2022-10-31T05:07:59;22.90;;;11.43;;
69523;SDS011;56723;42.694;23.286;2022-10-31T05:10:29;14.50;;;8.75;;
69523;SDS011;56723;42.694;23.286;2022-10-31T05:12:59;16.75;;;9.32;;
69523;SDS011;56723;42.694;23.286;2022-10-31T05:15:46;17.77;;;9.55;;
69523;SDS011;56723;42.694;23.286;2022-10-31T05:18:28;20.55;;;10.73;;
69523;SDS011;56723;42.694;23.286;2022-10-31T05:21:13;16.35;;;8.85;;
69523;SDS011;56723;42.694;23.286;2022-10-31T05:23:47;13.68;;;7.90;;
69523;SDS011;56723;42.694;23.286;2022-10-31T05:26:15;15.80;;;9.18;;
69523;SDS011;56723;42.694;23.286;2022-10-31T05:28:43;18.70;;;10.10;;
69523;SDS011;56723;42.694;23.286;2022-10-31T05:31:10;21.20;;;11.32;;
69523;SDS011;56723;42.694;23.286;2022-10-31T05:33:37;20.05;;;9.52;;
69523;SDS011;56723;42.694;23.286;2022-10-31T05:36:42;18.27;;;11.75;;
69523;SDS011;56723;42.694;23.286;2022-10-31T05:39:13;18.48;;;11.52;;
69523;SDS011;56723;42.694;23.286;2022-10-31T05:41:46;21.98;;;11.48;;
69523;SDS011;56723;42.694;23.286;2022-10-31T05:44:22;18.10;;;10.63;;
69523;SDS011;56723;42.694;23.286;2022-10-31T05:47:18;15.75;;;10.18;;
69523;SDS011;56723;42.694;23.286;2022-10-31T05:50:08;18.20;;;11.25;;
69523;SDS011;56723;42.694;23.286;2022-10-31T05:52:46;19.95;;;11.90;;
69523;SDS011;56723;42.694;23.286;2022-10-31T05:55:33;23.80;;;12.52;;
69523;SDS011;56723;42.694;23.286;2022-10-31T05:58:12;31.17;;;19.40;;
69523;SDS011;56723;42.694;23.286;2022-10-31T06:00:47;22.70;;;10.93;;
69523;SDS011;56723;42.694;23.286;2022-10-31T06:03:14;20.80;;;13.95;;
69523;SDS011;56723;42.694;23.286;2022-10-31T06:06:01;20.88;;;14.50;;
69523;SDS011;56723;42.694;23.286;2022-10-31T06:08:33;13.82;;;9.32;;
69523;SDS011;56723;42.694;23.286;2022-10-31T06:11:04;14.80;;;10.00;;
69523;SDS011;56723;42.694;23.286;2022-10-31T06:14:03;15.88;;;11.13;;
69523;SDS011;56723;42.694;23.286;2022-10-31T06:16:53;17.63;;;10.27;;
69523;SDS011;56723;42.694;23.286;2022-10-31T06:19:40;21.48;;;12.43;;
69523;SDS011;56723;42.694;23.286;2022-10-31T06:22:09;17.70;;;11.88;;
69523;SDS011;56723;42.694;23.286;2022-10-31T06:24:38;21.00;;;10.52;;
69523;SDS011;56723;42.694;23.286;2022-10-31T06:27:19;16.58;;;10.85;;
69523;SDS011;56723;42.694;23.286;2022-10-31T06:29:46;17.77;;;11.25;;
69523;SDS011;56723;42.694;23.286;2022-10-31T06:32:42;17.50;;;11.27;;
69523;SDS011;56723;42.694;23.286;2022-10-31T06:35:09;17.33;;;11.20;;
69523;SDS011;56723;42.694;23.286;2022-10-31T06:37:38;20.40;;;11.43;;
69523;SDS011;56723;42.694;23.286;2022-10-31T06:40:19;17.42;;;11.70;;
69523;SDS011;56723;42.694;23.286;2022-10-31T06:43:09;19.75;;;11.45;;
69523;SDS011;56723;42.694;23.286;2022-10-31T06:45:39;16.25;;;10.32;;
69523;SDS011;56723;42.694;23.286;2022-10-31T06:48:20;18.02;;;10.77;;
69523;SDS011;56723;42.694;23.286;2022-10-31T06:51:08;19.33;;;10.75;;
69523;SDS011;56723;42.694;23.286;2022-10-31T06:53:36;21.08;;;11.52;;
69523;SDS011;56723;42.694;23.286;2022-10-31T06:56:04;21.85;;;11.63;;
69523;SDS011;56723;42.694;23.286;2022-10-31T06:58:37;21.48;;;11.82;;
69523;SDS011;56723;42.694;23.286;2022-10-31T07:01:06;22.80;;;11.95;;
69523;SDS011;56723;42.694;23.286;2022-10-31T07:03:33;17.13;;;11.27;;
69523;SDS011;56723;42.694;23.286;2022-10-31T07:06:00;17.92;;;12.40;;
69523;SDS011;56723;42.694;23.286;2022-10-31T07:08:27;21.98;;;12.25;;
69523;SDS011;56723;42.694;23.286;2022-10-31T07:10:55;20.13;;;11.90;;
69523;SDS011;56723;42.694;23.286;2022-10-31T07:13:27;16.95;;;11.90;;
69523;SDS011;56723;42.694;23.286;2022-10-31T07:16:06;23.88;;;12.88;;
69523;SDS011;56723;42.694;23.286;2022-10-31T07:18:35;20.15;;;12.60;;
69523;SDS011;56723;42.694;23.286;2022-10-31T07:21:03;36.97;;;25.38;;
69523;SDS011;56723;42.694;23.286;2022-10-31T07:23:30;20.13;;;14.40;;
69523;SDS011;56723;42.694;23.286;2022-10-31T07:26:21;21.02;;;14.32;;
69523;SDS011;56723;42.694;23.286;2022-10-31T07:28:48;17.63;;;13.27;;
69523;SDS011;56723;42.694;23.286;2022-10-31T07:31:19;19.55;;;11.90;;
69523;SDS011;56723;42.694;23.286;2022-10-31T07:33:48;20.95;;;12.55;;
69523;SDS011;56723;42.694;23.286;2022-10-31T07:36:37;19.90;;;11.82;;
69523;SDS011;56723;42.694;23.286;2022-10-31T07:39:04;16.63;;;12.70;;
69523;SDS011;56723;42.694;23.286;2022-10-31T07:44:01;15.32;;;11.63;;
69523;SDS011;56723;42.694;23.286;2022-10-31T07:46:46;16.42;;;11.70;;
69523;SDS011;56723;42.694;23.286;2022-10-31T07:49:31;14.55;;;12.07;;
69523;SDS011;56723;42.694;23.286;2022-10-31T07:52:27;18.58;;;11.93;;
69523;SDS011;56723;42.694;23.286;2022-10-31T07:57:57;16.00;;;10.90;;
69523;SDS011;56723;42.694;23.286;2022-10-31T08:00:25;17.60;;;11.87;;
69523;SDS011;56723;42.694;23.286;2022-10-31T08:02:59;16.00;;;12.43;;
69523;SDS011;56723;42.694;23.286;2022-10-31T08:05:49;20.70;;;12.93;;
69523;SDS011;56723;42.694;23.286;2022-10-31T08:08:42;23.42;;;13.95;;
69523;SDS011;56723;42.694;23.286;2022-10-31T08:11:09;17.60;;;13.27;;
69523;SDS011;56723;42.694;23.286;2022-10-31T08:13:37;16.60;;;12.77;;
69523;SDS011;56723;42.694;23.286;2022-10-31T08:16:04;19.10;;;13.77;;
69523;SDS011;56723;42.694;23.286;2022-10-31T08:18:39;18.05;;;12.85;;
69523;SDS011;56723;42.694;23.286;2022-10-31T08:21:10;18.63;;;13.13;;
69523;SDS011;56723;42.694;23.286;2022-10-31T08:23:37;21.92;;;13.68;;
69523;SDS011;56723;42.694;23.286;2022-10-31T08:26:06;17.13;;;12.55;;
69523;SDS011;56723;42.694;23.286;2022-10-31T08:28:33;19.38;;;12.75;;
69523;SDS011;56723;42.694;23.286;2022-10-31T08:31:00;16.08;;;11.65;;
69523;SDS011;56723;42.694;23.286;2022-10-31T08:33:47;17.63;;;12.70;;
69523;SDS011;56723;42.694;23.286;2022-10-31T08:36:32;16.15;;;11.95;;
69523;SDS011;56723;42.694;23.286;2022-10-31T08:39:12;14.18;;;10.13;;
69523;SDS011;56723;42.694;23.286;2022-10-31T08:41:40;15.10;;;10.52;;
69523;SDS011;56723;42.694;23.286;2022-10-31T08:44:11;12.25;;;9.00;;
69523;SDS011;56723;42.694;23.286;2022-10-31T08:46:37;12.45;;;9.68;;
69523;SDS011;56723;42.694;23.286;2022-10-31T08:49:04;13.18;;;9.10;;
69523;SDS011;56723;42.694;23.286;2022-10-31T08:51:33;13.20;;;8.95;;
69523;SDS011;56723;42.694;23.286;2022-10-31T08:54:00;14.73;;;9.57;;
69523;SDS011;56723;42.694;23.286;2022-10-31T08:56:32;15.02;;;9.52;;
69523;SDS011;56723;42.694;23.286;2022-10-31T08:59:02;16.67;;;9.35;;
69523;SDS011;56723;42.694;23.286;2022-10-31T09:01:44;11.85;;;8.18;;
69523;SDS011;56723;42.694;23.286;2022-10-31T09:04:11;12.80;;;8.38;;
69523;SDS011;56723;42.694;23.286;2022-10-31T09:06:38;14.15;;;10.43;;
69523;SDS011;56723;42.694;23.286;2022-10-31T09:09:21;14.10;;;8.90;;
69523;SDS011;56723;42.694;23.286;2022-10-31T09:11:48;13.90;;;8.68;;
69523;SDS011;56723;42.694;23.286;2022-10-31T09:14:33;11.73;;;8.15;;
69523;SDS011;56723;42.694;23.286;2022-10-31T09:17:20;12.35;;;7.75;;
69523;SDS011;56723;42.694;23.286;2022-10-31T09:20:07;14.13;;;8.18;;
69523;SDS011;56723;42.694;23.286;2022-10-31T09:22:35;12.00;;;8.77;;
69523;SDS011;56723;42.694;23.286;2022-10-31T09:25:02;12.88;;;8.35;;
69523;SDS011;56723;42.694;23.286;2022-10-31T09:27:29;12.40;;;8.00;;
69523;SDS011;56723;42.694;23.286;2022-10-31T09:29:56;11.85;;;8.50;;
69523;SDS011;56723;42.694;23.286;2022-10-31T09:32:23;12.48;;;8.52;;
69523;SDS011;56723;42.694;23.286;2022-10-31T09:34:50;12.35;;;8.25;;
69523;SDS011;56723;42.694;23.286;2022-10-31T09:37:19;10.18;;;7.28;;
69523;SDS011;56723;42.694;23.286;2022-10-31T09:39:46;12.20;;;7.35;;
69523;SDS011;56723;42.694;23.286;2022-10-31T09:42:55;10.38;;;6.80;;
69523;SDS011;56723;42.694;23.286;2022-10-31T09:54:11;8.98;;;4.75;;
69523;SDS011;56723;42.694;23.286;2022-10-31T09:56:41;9.18;;;5.53;;
69523;SDS011;56723;42.694;23.286;2022-10-31T10:04:31;7.47;;;4.47;;
69523;SDS011;56723;42.694;23.286;2022-10-31T10:10:18;14.95;;;5.00;;
69523;SDS011;56723;42.694;23.286;2022-10-31T10:12:57;9.32;;;5.68;;
69523;SDS011;56723;42.694;23.286;2022-10-31T10:23:51;6.20;;;2.97;;
69523;SDS011;56723;42.694;23.286;2022-10-31T10:26:46;5.70;;;3.00;;
69523;SDS011;56723;42.694;23.286;2022-10-31T10:29:27;6.00;;;2.75;;
69523;SDS011;56723;42.694;23.286;2022-10-31T10:32:19;5.85;;;2.35;;
69523;SDS011;56723;42.694;23.286;2022-10-31T10:34:55;8.18;;;2.15;;
69523;SDS011;56723;42.694;23.286;2022-10-31T10:37:43;5.25;;;2.38;;
69523;SDS011;56723;42.694;23.286;2022-10-31T10:40:16;8.77;;;2.20;;
69523;SDS011;56723;42.694;23.286;2022-10-31T10:42:45;4.20;;;2.08;;
69523;SDS011;56723;42.694;23.286;2022-10-31T10:45:41;7.05;;;1.77;;
69523;SDS011;56723;42.694;23.286;2022-10-31T10:51:15;6.15;;;2.42;;
69523;SDS011;56723;42.694;23.286;2022-10-31T10:54:17;9.98;;;3.60;;
69523;SDS011;56723;42.694;23.286;2022-10-31T10:59:56;7.30;;;3.08;;
69523;SDS011;56723;42.694;23.286;2022-10-31T11:02:27;5.85;;;2.90;;
69523;SDS011;56723;42.694;23.286;2022-10-31T11:04:59;5.25;;;1.77;;
69523;SDS011;56723;42.694;23.286;2022-10-31T11:07:38;5.63;;;2.67;;
69523;SDS011;56723;42.694;23.286;2022-10-31T11:10:06;5.63;;;2.13;;
69523;SDS011;56723;42.694;23.286;2022-10-31T11:12:42;5.85;;;2.30;;
69523;SDS011;56723;42.694;23.286;2022-10-31T11:15:18;11.70;;;2.40;;
69523;SDS011;56723;42.694;23.286;2022-10-31T11:17:49;8.55;;;2.15;;
69523;SDS011;56723;42.694;23.286;2022-10-31T11:22:46;4.43;;;1.63;;
69523;SDS011;56723;42.694;23.286;2022-10-31T11:25:21;5.03;;;2.22;;
69523;SDS011;56723;42.694;23.286;2022-10-31T11:28:03;4.95;;;2.05;;
69523;SDS011;56723;42.694;23.286;2022-10-31T11:30:35;6.53;;;2.30;;
69523;SDS011;56723;42.694;23.286;2022-10-31T11:36:02;5.50;;;1.73;;
69523;SDS011;56723;42.694;23.286;2022-10-31T11:38:46;7.43;;;2.20;;
69523;SDS011;56723;42.694;23.286;2022-10-31T11:41:15;5.13;;;2.37;;
69523;SDS011;56723;42.694;23.286;2022-10-31T11:43:46;4.72;;;1.90;;
69523;SDS011;56723;42.694;23.286;2022-10-31T11:46:18;6.30;;;1.55;;
69523;SDS011;56723;42.694;23.286;2022-10-31T11:48:51;5.25;;;2.00;;
69523;SDS011;56723;42.694;23.286;2022-10-31T11:51:28;7.05;;;1.55;;
69523;SDS011;56723;42.694;23.286;2022-10-31T11:53:59;4.57;;;1.23;;
69523;SDS011;56723;42.694;23.286;2022-10-31T11:56:41;5.93;;;1.92;;
69523;SDS011;56723;42.694;23.286;2022-10-31T11:59:16;6.82;;;2.30;;
69523;SDS011;56723;42.694;23.286;2022-10-31T12:01:52;6.25;;;1.60;;
69523;SDS011;56723;42.694;23.286;2022-10-31T12:04:40;4.50;;;1.10;;
69523;SDS011;56723;42.694;23.286;2022-10-31T12:07:17;5.50;;;2.08;;
69523;SDS011;56723;42.694;23.286;2022-10-31T12:09:44;6.80;;;1.55;;
69523;SDS011;56723;42.694;23.286;2022-10-31T12:26:30;7.03;;;2.33;;
69523;SDS011;56723;42.694;23.286;2022-10-31T12:47:48;3.92;;;1.20;;
69523;SDS011;56723;42.694;23.286;2022-10-31T12:51:07;7.80;;;1.90;;
69523;SDS011;56723;42.694;23.286;2022-10-31T12:58:50;7.55;;;1.88;;
69523;SDS011;56723;42.694;23.286;2022-10-31T13:04:05;9.95;;;2.15;;
69523;SDS011;56723;42.694;23.286;2022-10-31T13:06:50;7.15;;;2.42;;
69523;SDS011;56723;42.694;23.286;2022-10-31T13:09:25;5.80;;;1.60;;
69523;SDS011;56723;42.694;23.286;2022-10-31T13:12:08;5.53;;;2.25;;
69523;SDS011;56723;42.694;23.286;2022-10-31T13:14:43;5.90;;;2.20;;
69523;SDS011;56723;42.694;23.286;2022-10-31T13:17:30;6.68;;;1.90;;
69523;SDS011;56723;42.694;23.286;2022-10-31T13:20:47;6.25;;;1.90;;
69523;SDS011;56723;42.694;23.286;2022-10-31T13:22:56;4.10;;;1.85;;
69523;SDS011;56723;42.694;23.286;2022-10-31T13:25:49;6.72;;;1.80;;
69523;SDS011;56723;42.694;23.286;2022-10-31T13:31:10;6.35;;;1.65;;
69523;SDS011;56723;42.694;23.286;2022-10-31T13:33:42;5.50;;;2.03;;
69523;SDS011;56723;42.694;23.286;2022-10-31T13:36:21;5.88;;;1.85;;
69523;SDS011;56723;42.694;23.286;2022-10-31T13:44:17;5.25;;;1.48;;
69523;SDS011;56723;42.694;23.286;2022-10-31T13:46:48;6.38;;;1.80;;
69523;SDS011;56723;42.694;23.286;2022-10-31T13:49:26;6.25;;;1.83;;
69523;SDS011;56723;42.694;23.286;2022-10-31T13:54:46;8.38;;;2.08;;
69523;SDS011;56723;42.694;23.286;2022-10-31T13:57:22;8.93;;;1.73;;
69523;SDS011;56723;42.694;23.286;2022-10-31T14:00:41;7.00;;;1.90;;
69523;SDS011;56723;42.694;23.286;2022-10-31T14:02:49;9.38;;;1.77;;
69523;SDS011;56723;42.694;23.286;2022-10-31T14:07:49;6.65;;;1.58;;
69523;SDS011;56723;42.694;23.286;2022-10-31T14:15:42;6.80;;;1.60;;
69523;SDS011;56723;42.694;23.286;2022-10-31T14:18:21;9.25;;;1.60;;
69523;SDS011;56723;42.694;23.286;2022-10-31T14:20:50;7.35;;;1.45;;
69523;SDS011;56723;42.694;23.286;2022-10-31T14:26:17;7.18;;;1.55;;
69523;SDS011;56723;42.694;23.286;2022-10-31T14:31:54;6.35;;;1.55;;
69523;SDS011;56723;42.694;23.286;2022-10-31T14:34:34;4.57;;;1.65;;
69523;SDS011;56723;42.694;23.286;2022-10-31T14:45:34;6.55;;;1.98;;
69523;SDS011;56723;42.694;23.286;2022-10-31T14:48:27;9.38;;;2.50;;
69523;SDS011;56723;42.694;23.286;2022-10-31T14:51:10;7.50;;;2.03;;
69523;SDS011;56723;42.694;23.286;2022-10-31T14:53:48;7.90;;;2.13;;
69523;SDS011;56723;42.694;23.286;2022-10-31T14:56:19;8.25;;;2.47;;
69523;SDS011;56723;42.694;23.286;2022-10-31T14:58:51;10.05;;;2.88;;
69523;SDS011;56723;42.694;23.286;2022-10-31T15:01:26;7.07;;;2.83;;
69523;SDS011;56723;42.694;23.286;2022-10-31T15:04:04;5.05;;;2.53;;
69523;SDS011;56723;42.694;23.286;2022-10-31T15:14:57;8.93;;;2.85;;
69523;SDS011;56723;42.694;23.286;2022-10-31T15:17:41;7.97;;;2.40;;
69523;SDS011;56723;42.694;23.286;2022-10-31T15:20:18;6.97;;;2.39;;
69523;SDS011;56723;42.694;23.286;2022-10-31T15:22:48;7.05;;;2.30;;
69523;SDS011;56723;42.694;23.286;2022-10-31T15:25:20;11.82;;;3.33;;
69523;SDS011;56723;42.694;23.286;2022-10-31T15:27:50;11.65;;;3.03;;
69523;SDS011;56723;42.694;23.286;2022-10-31T15:30:27;13.82;;;3.88;;
69523;SDS011;56723;42.694;23.286;2022-10-31T15:32:55;13.93;;;6.32;;
69523;SDS011;56723;42.694;23.286;2022-10-31T15:37:52;15.50;;;6.82;;
69523;SDS011;56723;42.694;23.286;2022-10-31T15:40:23;14.32;;;4.20;;
69523;SDS011;56723;42.694;23.286;2022-10-31T15:42:52;20.85;;;5.90;;
69523;SDS011;56723;42.694;23.286;2022-10-31T15:45:26;17.98;;;4.07;;
69523;SDS011;56723;42.694;23.286;2022-10-31T15:48:11;20.50;;;9.77;;
69523;SDS011;56723;42.694;23.286;2022-10-31T15:50:51;21.83;;;10.77;;
69523;SDS011;56723;42.694;23.286;2022-10-31T15:53:22;9.50;;;3.22;;
69523;SDS011;56723;42.694;23.286;2022-10-31T15:55:57;11.70;;;4.80;;
69523;SDS011;56723;42.694;23.286;2022-10-31T15:58:28;25.25;;;7.63;;
69523;SDS011;56723;42.694;23.286;2022-10-31T16:01:03;20.53;;;8.10;;
69523;SDS011;56723;42.694;23.286;2022-10-31T16:03:32;26.98;;;10.75;;
69523;SDS011;56723;42.694;23.286;2022-10-31T16:06:01;23.45;;;10.45;;
69523;SDS011;56723;42.694;23.286;2022-10-31T16:10:58;21.15;;;7.53;;
69523;SDS011;56723;42.694;23.286;2022-10-31T16:13:30;20.65;;;5.90;;
69523;SDS011;56723;42.694;23.286;2022-10-31T16:16:03;20.15;;;5.68;;
69523;SDS011;56723;42.694;23.286;2022-10-31T16:18:57;26.25;;;8.52;;
69523;SDS011;56723;42.694;23.286;2022-10-31T16:24:13;26.55;;;10.40;;
69523;SDS011;56723;42.694;23.286;2022-10-31T16:26:41;25.67;;;8.63;;
69523;SDS011;56723;42.694;23.286;2022-10-31T16:35:34;25.95;;;9.48;;
69523;SDS011;56723;42.694;23.286;2022-10-31T16:38:03;22.75;;;9.63;;
69523;SDS011;56723;42.694;23.286;2022-10-31T16:40:31;31.30;;;11.17;;
69523;SDS011;56723;42.694;23.286;2022-10-31T16:42:59;36.30;;;12.50;;
69523;SDS011;56723;42.694;23.286;2022-10-31T16:45:28;34.05;;;12.80;;
69523;SDS011;56723;42.694;23.286;2022-10-31T16:48:01;35.35;;;13.80;;
69523;SDS011;56723;42.694;23.286;2022-10-31T16:50:36;30.92;;;12.98;;
69523;SDS011;56723;42.694;23.286;2022-10-31T16:53:04;30.05;;;14.68;;
69523;SDS011;56723;42.694;23.286;2022-10-31T16:55:44;25.92;;;14.05;;
69523;SDS011;56723;42.694;23.286;2022-10-31T16:58:20;35.38;;;15.55;;
69523;SDS011;56723;42.694;23.286;2022-10-31T17:00:49;32.28;;;13.85;;
69523;SDS011;56723;42.694;23.286;2022-10-31T17:03:17;46.45;;;19.90;;
69523;SDS011;56723;42.694;23.286;2022-10-31T17:05:44;56.85;;;23.92;;
69523;SDS011;56723;42.694;23.286;2022-10-31T17:08:12;40.47;;;15.82;;
69523;SDS011;56723;42.694;23.286;2022-10-31T17:10:39;30.35;;;13.43;;
69523;SDS011;56723;42.694;23.286;2022-10-31T17:13:09;48.80;;;17.98;;
69523;SDS011;56723;42.694;23.286;2022-10-31T17:15:41;36.40;;;16.10;;
69523;SDS011;56723;42.694;23.286;2022-10-31T17:18:11;33.33;;;15.32;;
69523;SDS011;56723;42.694;23.286;2022-10-31T17:20:39;36.38;;;15.43;;
69523;SDS011;56723;42.694;23.286;2022-10-31T17:23:11;35.72;;;14.13;;
69523;SDS011;56723;42.694;23.286;2022-10-31T17:25:39;34.50;;;13.75;;
69523;SDS011;56723;42.694;23.286;2022-10-31T17:28:24;23.02;;;11.45;;
69523;SDS011;56723;42.694;23.286;2022-10-31T17:30:53;33.80;;;10.40;;
69523;SDS011;56723;42.694;23.286;2022-10-31T17:35:48;18.50;;;8.98;;
69523;SDS011;56723;42.694;23.286;2022-10-31T17:38:15;18.45;;;8.70;;
69523;SDS011;56723;42.694;23.286;2022-10-31T17:40:42;26.00;;;10.57;;
69523;SDS011;56723;42.694;23.286;2022-10-31T17:43:09;23.42;;;10.60;;
69523;SDS011;56723;42.694;23.286;2022-10-31T17:45:38;23.25;;;10.23;;
69523;SDS011;56723;42.694;23.286;2022-10-31T17:48:06;19.05;;;8.23;;
69523;SDS011;56723;42.694;23.286;2022-10-31T17:50:43;19.70;;;8.40;;
69523;SDS011;56723;42.694;23.286;2022-10-31T17:53:23;22.90;;;9.70;;
69523;SDS011;56723;42.694;23.286;2022-10-31T17:55:50;22.98;;;9.90;;
69523;SDS011;56723;42.694;23.286;2022-10-31T17:58:16;21.40;;;9.65;;